sensor_id;sensor_type;location;lat;lon;timestamp;P1;durP1;ratioP1;P2;durP2;ratioP2
22826;SDS011;11580;52.562;13.418;2023-01-13T00:01:10;1.33;;;1.03;;
22826;SDS011;11580;52.562;13.418;2023-01-13T00:03:41;0.80;;;0.80;;
22826;SDS011;11580;52.562;13.418;2023-01-13T00:06:08;0.80;;;0.80;;
22826;SDS011;11580;52.562;13.418;2023-01-13T00:08:38;1.00;;;0.90;;
22826;SDS011;11580;52.562;13.418;2023-01-13T00:11:06;1.40;;;1.03;;
22826;SDS011;11580;52.562;13.418;2023-01-13T00:13:33;0.70;;;0.67;;
22826;SDS011;11580;52.562;13.418;2023-01-13T00:16:01;0.70;;;0.70;;
22826;SDS011;11580;52.562;13.418;2023-01-13T00:18:33;0.90;;;0.70;;
22826;SDS011;11580;52.562;13.418;2023-01-13T00:21:02;1.03;;;0.90;;
22826;SDS011;11580;52.562;13.418;2023-01-13T00:23:32;0.80;;;0.80;;
22826;SDS011;11580;52.562;13.418;2023-01-13T00:26:03;0.70;;;0.70;;
22826;SDS011;11580;52.562;13.418;2023-01-13T00:28:32;0.70;;;0.70;;
22826;SDS011;11580;52.562;13.418;2023-01-13T00:31:03;0.70;;;0.70;;
22826;SDS011;11580;52.562;13.418;2023-01-13T00:33:32;0.90;;;0.60;;
22826;SDS011;11580;52.562;13.418;2023-01-13T00:36:00;0.87;;;0.60;;
22826;SDS011;11580;52.562;13.418;2023-01-13T00:38:29;0.70;;;0.70;;
22826;SDS011;11580;52.562;13.418;2023-01-13T00:40:59;0.53;;;0.53;;
22826;SDS011;11580;52.562;13.418;2023-01-13T00:43:28;0.70;;;0.70;;
22826;SDS011;11580;52.562;13.418;2023-01-13T00:45:56;1.00;;;0.63;;
22826;SDS011;11580;52.562;13.418;2023-01-13T00:48:24;0.60;;;0.60;;
22826;SDS011;11580;52.562;13.418;2023-01-13T00:50:55;0.80;;;0.80;;
22826;SDS011;11580;52.562;13.418;2023-01-13T00:53:24;0.60;;;0.60;;
22826;SDS011;11580;52.562;13.418;2023-01-13T00:55:58;0.60;;;0.60;;
22826;SDS011;11580;52.562;13.418;2023-01-13T00:58:26;0.70;;;0.70;;
22826;SDS011;11580;52.562;13.418;2023-01-13T01:00:58;0.73;;;0.73;;
22826;SDS011;11580;52.562;13.418;2023-01-13T01:03:25;0.60;;;0.60;;
22826;SDS011;11580;52.562;13.418;2023-01-13T01:05:53;0.60;;;0.60;;
22826;SDS011;11580;52.562;13.418;2023-01-13T01:08:22;0.80;;;0.70;;
22826;SDS011;11580;52.562;13.418;2023-01-13T01:10:49;0.70;;;0.70;;
22826;SDS011;11580;52.562;13.418;2023-01-13T01:13:26;0.57;;;0.57;;
22826;SDS011;11580;52.562;13.418;2023-01-13T01:15:53;0.60;;;0.57;;
22826;SDS011;11580;52.562;13.418;2023-01-13T01:18:20;0.73;;;0.73;;
22826;SDS011;11580;52.562;13.418;2023-01-13T01:20:48;0.50;;;0.50;;
22826;SDS011;11580;52.562;13.418;2023-01-13T01:23:16;0.60;;;0.60;;
22826;SDS011;11580;52.562;13.418;2023-01-13T01:25:43;0.70;;;0.70;;
22826;SDS011;11580;52.562;13.418;2023-01-13T01:28:10;0.80;;;0.77;;
22826;SDS011;11580;52.562;13.418;2023-01-13T01:30:38;1.20;;;1.20;;
22826;SDS011;11580;52.562;13.418;2023-01-13T01:33:05;0.97;;;0.90;;
22826;SDS011;11580;52.562;13.418;2023-01-13T01:35:32;0.60;;;0.60;;
22826;SDS011;11580;52.562;13.418;2023-01-13T01:37:59;1.00;;;0.70;;
22826;SDS011;11580;52.562;13.418;2023-01-13T01:40:27;0.70;;;0.70;;
22826;SDS011;11580;52.562;13.418;2023-01-13T01:42:54;0.60;;;0.60;;
22826;SDS011;11580;52.562;13.418;2023-01-13T01:45:39;0.50;;;0.50;;
22826;SDS011;11580;52.562;13.418;2023-01-13T01:48:06;0.70;;;0.70;;
22826;SDS011;11580;52.562;13.418;2023-01-13T01:50:34;0.40;;;0.40;;
22826;SDS011;11580;52.562;13.418;2023-01-13T01:53:04;0.50;;;0.50;;
22826;SDS011;11580;52.562;13.418;2023-01-13T01:55:38;0.80;;;0.70;;
22826;SDS011;11580;52.562;13.418;2023-01-13T01:58:06;0.67;;;0.67;;
22826;SDS011;11580;52.562;13.418;2023-01-13T02:00:40;0.70;;;0.70;;
22826;SDS011;11580;52.562;13.418;2023-01-13T02:03:08;0.70;;;0.70;;
22826;SDS011;11580;52.562;13.418;2023-01-13T02:05:36;1.17;;;0.90;;
22826;SDS011;11580;52.562;13.418;2023-01-13T02:08:04;0.70;;;0.70;;
22826;SDS011;11580;52.562;13.418;2023-01-13T02:10:33;1.13;;;0.70;;
22826;SDS011;11580;52.562;13.418;2023-01-13T02:13:03;0.60;;;0.60;;
22826;SDS011;11580;52.562;13.418;2023-01-13T02:15:37;0.50;;;0.50;;
22826;SDS011;11580;52.562;13.418;2023-01-13T02:18:21;0.50;;;0.50;;
22826;SDS011;11580;52.562;13.418;2023-01-13T02:21:26;1.20;;;0.67;;
22826;SDS011;11580;52.562;13.418;2023-01-13T02:24:33;0.60;;;0.60;;
22826;SDS011;11580;52.562;13.418;2023-01-13T02:30:49;1.27;;;1.17;;
22826;SDS011;11580;52.562;13.418;2023-01-13T02:33:41;1.33;;;1.23;;
22826;SDS011;11580;52.562;13.418;2023-01-13T02:36:28;0.80;;;0.70;;
22826;SDS011;11580;52.562;13.418;2023-01-13T02:39:06;0.70;;;0.70;;
22826;SDS011;11580;52.562;13.418;2023-01-13T02:41:41;0.90;;;0.70;;
22826;SDS011;11580;52.562;13.418;2023-01-13T02:44:35;0.80;;;0.73;;
22826;SDS011;11580;52.562;13.418;2023-01-13T02:47:14;0.50;;;0.50;;
22826;SDS011;11580;52.562;13.418;2023-01-13T02:49:46;0.90;;;0.53;;
22826;SDS011;11580;52.562;13.418;2023-01-13T02:52:19;0.50;;;0.50;;
22826;SDS011;11580;52.562;13.418;2023-01-13T02:54:54;2.80;;;0.50;;
22826;SDS011;11580;52.562;13.418;2023-01-13T02:57:26;0.63;;;0.53;;
22826;SDS011;11580;52.562;13.418;2023-01-13T02:59:58;0.60;;;0.60;;
22826;SDS011;11580;52.562;13.418;2023-01-13T03:02:27;0.80;;;0.60;;
22826;SDS011;11580;52.562;13.418;2023-01-13T03:04:55;0.93;;;0.50;;
22826;SDS011;11580;52.562;13.418;2023-01-13T03:07:32;0.60;;;0.50;;
22826;SDS011;11580;52.562;13.418;2023-01-13T03:16:40;2.03;;;0.77;;
22826;SDS011;11580;52.562;13.418;2023-01-13T03:19:25;0.50;;;0.50;;
22826;SDS011;11580;52.562;13.418;2023-01-13T03:22:05;0.50;;;0.50;;
22826;SDS011;11580;52.562;13.418;2023-01-13T03:24:46;0.50;;;0.50;;
22826;SDS011;11580;52.562;13.418;2023-01-13T03:27:21;0.97;;;0.50;;
22826;SDS011;11580;52.562;13.418;2023-01-13T03:29:57;0.40;;;0.40;;
22826;SDS011;11580;52.562;13.418;2023-01-13T03:32:31;0.70;;;0.70;;
22826;SDS011;11580;52.562;13.418;2023-01-13T03:35:06;0.60;;;0.53;;
22826;SDS011;11580;52.562;13.418;2023-01-13T03:37:41;0.63;;;0.60;;
22826;SDS011;11580;52.562;13.418;2023-01-13T03:40:17;0.63;;;0.40;;
22826;SDS011;11580;52.562;13.418;2023-01-13T03:42:52;0.60;;;0.50;;
22826;SDS011;11580;52.562;13.418;2023-01-13T03:45:43;0.70;;;0.70;;
22826;SDS011;11580;52.562;13.418;2023-01-13T03:48:20;0.47;;;0.47;;
22826;SDS011;11580;52.562;13.418;2023-01-13T03:50:54;0.63;;;0.63;;
22826;SDS011;11580;52.562;13.418;2023-01-13T03:53:31;0.57;;;0.57;;
22826;SDS011;11580;52.562;13.418;2023-01-13T03:56:06;1.07;;;0.77;;
22826;SDS011;11580;52.562;13.418;2023-01-13T03:58:41;0.60;;;0.60;;
22826;SDS011;11580;52.562;13.418;2023-01-13T04:01:13;1.03;;;0.70;;
22826;SDS011;11580;52.562;13.418;2023-01-13T04:03:47;0.80;;;0.80;;
22826;SDS011;11580;52.562;13.418;2023-01-13T04:06:22;0.60;;;0.60;;
22826;SDS011;11580;52.562;13.418;2023-01-13T04:09:00;0.60;;;0.60;;
22826;SDS011;11580;52.562;13.418;2023-01-13T04:11:34;0.70;;;0.70;;
22826;SDS011;11580;52.562;13.418;2023-01-13T04:14:09;0.70;;;0.70;;
22826;SDS011;11580;52.562;13.418;2023-01-13T04:16:39;0.87;;;0.80;;
22826;SDS011;11580;52.562;13.418;2023-01-13T04:19:07;0.87;;;0.50;;
22826;SDS011;11580;52.562;13.418;2023-01-13T04:21:35;1.10;;;1.00;;
22826;SDS011;11580;52.562;13.418;2023-01-13T04:24:02;0.70;;;0.70;;
22826;SDS011;11580;52.562;13.418;2023-01-13T04:26:30;0.90;;;0.70;;
22826;SDS011;11580;52.562;13.418;2023-01-13T04:28:57;1.70;;;0.70;;
22826;SDS011;11580;52.562;13.418;2023-01-13T04:31:24;0.50;;;0.50;;
22826;SDS011;11580;52.562;13.418;2023-01-13T04:33:51;0.63;;;0.63;;
22826;SDS011;11580;52.562;13.418;2023-01-13T04:36:18;0.77;;;0.60;;
22826;SDS011;11580;52.562;13.418;2023-01-13T04:38:50;2.30;;;0.67;;
22826;SDS011;11580;52.562;13.418;2023-01-13T04:41:17;0.60;;;0.60;;
22826;SDS011;11580;52.562;13.418;2023-01-13T04:43:44;0.83;;;0.60;;
22826;SDS011;11580;52.562;13.418;2023-01-13T04:46:12;0.50;;;0.50;;
22826;SDS011;11580;52.562;13.418;2023-01-13T04:48:39;0.47;;;0.47;;
22826;SDS011;11580;52.562;13.418;2023-01-13T04:51:06;1.37;;;0.60;;
22826;SDS011;11580;52.562;13.418;2023-01-13T04:53:33;0.50;;;0.50;;
22826;SDS011;11580;52.562;13.418;2023-01-13T04:56:02;0.47;;;0.47;;
22826;SDS011;11580;52.562;13.418;2023-01-13T04:58:29;0.80;;;0.53;;
22826;SDS011;11580;52.562;13.418;2023-01-13T05:00:56;0.60;;;0.60;;
22826;SDS011;11580;52.562;13.418;2023-01-13T05:03:24;0.57;;;0.57;;
22826;SDS011;11580;52.562;13.418;2023-01-13T05:05:51;0.50;;;0.43;;
22826;SDS011;11580;52.562;13.418;2023-01-13T05:08:18;0.43;;;0.43;;
22826;SDS011;11580;52.562;13.418;2023-01-13T05:10:45;0.40;;;0.40;;
22826;SDS011;11580;52.562;13.418;2023-01-13T05:13:13;0.60;;;0.60;;
22826;SDS011;11580;52.562;13.418;2023-01-13T05:15:59;0.50;;;0.50;;
22826;SDS011;11580;52.562;13.418;2023-01-13T05:18:44;0.57;;;0.57;;
22826;SDS011;11580;52.562;13.418;2023-01-13T05:21:11;1.00;;;0.50;;
22826;SDS011;11580;52.562;13.418;2023-01-13T05:23:52;0.60;;;0.60;;
22826;SDS011;11580;52.562;13.418;2023-01-13T05:26:37;0.80;;;0.60;;
22826;SDS011;11580;52.562;13.418;2023-01-13T05:29:05;0.70;;;0.50;;
22826;SDS011;11580;52.562;13.418;2023-01-13T05:31:32;0.60;;;0.60;;
22826;SDS011;11580;52.562;13.418;2023-01-13T05:33:59;0.60;;;0.60;;
22826;SDS011;11580;52.562;13.418;2023-01-13T05:36:26;0.60;;;0.60;;
22826;SDS011;11580;52.562;13.418;2023-01-13T05:38:53;0.70;;;0.60;;
22826;SDS011;11580;52.562;13.418;2023-01-13T05:41:20;0.60;;;0.60;;
22826;SDS011;11580;52.562;13.418;2023-01-13T05:44:06;0.63;;;0.63;;
22826;SDS011;11580;52.562;13.418;2023-01-13T05:46:34;0.77;;;0.70;;
22826;SDS011;11580;52.562;13.418;2023-01-13T05:49:01;1.60;;;0.90;;
22826;SDS011;11580;52.562;13.418;2023-01-13T05:51:29;0.70;;;0.70;;
22826;SDS011;11580;52.562;13.418;2023-01-13T05:53:56;0.80;;;0.80;;
22826;SDS011;11580;52.562;13.418;2023-01-13T05:56:23;0.80;;;0.80;;
22826;SDS011;11580;52.562;13.418;2023-01-13T05:58:50;0.60;;;0.60;;
22826;SDS011;11580;52.562;13.418;2023-01-13T06:01:19;0.53;;;0.53;;
22826;SDS011;11580;52.562;13.418;2023-01-13T06:03:46;1.03;;;0.63;;
22826;SDS011;11580;52.562;13.418;2023-01-13T06:06:13;1.43;;;0.80;;
22826;SDS011;11580;52.562;13.418;2023-01-13T06:08:40;0.80;;;0.73;;
22826;SDS011;11580;52.562;13.418;2023-01-13T06:11:07;1.10;;;0.70;;
22826;SDS011;11580;52.562;13.418;2023-01-13T06:13:34;0.87;;;0.83;;
22826;SDS011;11580;52.562;13.418;2023-01-13T06:16:01;1.00;;;0.90;;
22826;SDS011;11580;52.562;13.418;2023-01-13T06:18:30;1.13;;;1.03;;
22826;SDS011;11580;52.562;13.418;2023-01-13T06:20:57;1.53;;;0.90;;
22826;SDS011;11580;52.562;13.418;2023-01-13T06:23:24;1.53;;;1.20;;
22826;SDS011;11580;52.562;13.418;2023-01-13T06:25:54;1.30;;;1.20;;
22826;SDS011;11580;52.562;13.418;2023-01-13T06:28:31;2.70;;;1.20;;
22826;SDS011;11580;52.562;13.418;2023-01-13T06:30:59;1.20;;;1.07;;
22826;SDS011;11580;52.562;13.418;2023-01-13T06:33:33;1.80;;;1.20;;
22826;SDS011;11580;52.562;13.418;2023-01-13T06:36:08;1.30;;;1.20;;
22826;SDS011;11580;52.562;13.418;2023-01-13T06:38:40;1.20;;;1.10;;
22826;SDS011;11580;52.562;13.418;2023-01-13T06:41:12;1.23;;;1.07;;
22826;SDS011;11580;52.562;13.418;2023-01-13T06:43:40;1.50;;;1.10;;
22826;SDS011;11580;52.562;13.418;2023-01-13T06:46:07;0.83;;;0.83;;
22826;SDS011;11580;52.562;13.418;2023-01-13T06:48:35;1.40;;;1.30;;
22826;SDS011;11580;52.562;13.418;2023-01-13T06:51:03;1.47;;;1.37;;
22826;SDS011;11580;52.562;13.418;2023-01-13T06:53:30;1.80;;;1.20;;
22826;SDS011;11580;52.562;13.418;2023-01-13T06:55:58;0.83;;;0.83;;
22826;SDS011;11580;52.562;13.418;2023-01-13T06:58:25;1.00;;;1.00;;
22826;SDS011;11580;52.562;13.418;2023-01-13T07:00:52;2.37;;;1.40;;
22826;SDS011;11580;52.562;13.418;2023-01-13T07:03:19;1.10;;;1.00;;
22826;SDS011;11580;52.562;13.418;2023-01-13T07:05:51;1.00;;;0.97;;
22826;SDS011;11580;52.562;13.418;2023-01-13T07:08:20;0.90;;;0.90;;
22826;SDS011;11580;52.562;13.418;2023-01-13T07:10:48;0.80;;;0.80;;
22826;SDS011;11580;52.562;13.418;2023-01-13T07:13:15;0.80;;;0.80;;
22826;SDS011;11580;52.562;13.418;2023-01-13T07:16:00;1.20;;;1.10;;
22826;SDS011;11580;52.562;13.418;2023-01-13T07:18:30;0.80;;;0.80;;
22826;SDS011;11580;52.562;13.418;2023-01-13T07:21:01;1.67;;;1.00;;
22826;SDS011;11580;52.562;13.418;2023-01-13T07:23:32;1.10;;;1.00;;
22826;SDS011;11580;52.562;13.418;2023-01-13T07:26:02;1.00;;;0.90;;
22826;SDS011;11580;52.562;13.418;2023-01-13T07:28:31;1.53;;;1.17;;
22826;SDS011;11580;52.562;13.418;2023-01-13T07:30:59;1.20;;;0.90;;
22826;SDS011;11580;52.562;13.418;2023-01-13T07:33:26;1.00;;;1.00;;
22826;SDS011;11580;52.562;13.418;2023-01-13T07:35:57;1.40;;;1.30;;
22826;SDS011;11580;52.562;13.418;2023-01-13T07:38:28;1.33;;;0.80;;
22826;SDS011;11580;52.562;13.418;2023-01-13T07:40:57;1.53;;;1.07;;
22826;SDS011;11580;52.562;13.418;2023-01-13T07:43:46;1.23;;;0.90;;
22826;SDS011;11580;52.562;13.418;2023-01-13T07:46:12;0.70;;;0.70;;
22826;SDS011;11580;52.562;13.418;2023-01-13T07:48:39;0.87;;;0.87;;
22826;SDS011;11580;52.562;13.418;2023-01-13T07:51:08;0.70;;;0.70;;
22826;SDS011;11580;52.562;13.418;2023-01-13T07:53:37;1.30;;;1.10;;
22826;SDS011;11580;52.562;13.418;2023-01-13T07:56:05;1.37;;;0.80;;
22826;SDS011;11580;52.562;13.418;2023-01-13T07:58:34;1.60;;;0.90;;
22826;SDS011;11580;52.562;13.418;2023-01-13T08:01:05;0.90;;;0.80;;
22826;SDS011;11580;52.562;13.418;2023-01-13T08:03:33;0.60;;;0.60;;
22826;SDS011;11580;52.562;13.418;2023-01-13T08:06:01;0.93;;;0.90;;
22826;SDS011;11580;52.562;13.418;2023-01-13T08:08:30;0.93;;;0.80;;
22826;SDS011;11580;52.562;13.418;2023-01-13T08:10:57;1.20;;;1.10;;
22826;SDS011;11580;52.562;13.418;2023-01-13T08:13:25;1.53;;;0.80;;
22826;SDS011;11580;52.562;13.418;2023-01-13T08:15:53;1.57;;;1.10;;
22826;SDS011;11580;52.562;13.418;2023-01-13T08:18:26;1.13;;;0.83;;
22826;SDS011;11580;52.562;13.418;2023-01-13T08:20:53;1.87;;;0.70;;
22826;SDS011;11580;52.562;13.418;2023-01-13T08:23:21;0.70;;;0.70;;
22826;SDS011;11580;52.562;13.418;2023-01-13T08:25:49;1.00;;;0.90;;
22826;SDS011;11580;52.562;13.418;2023-01-13T08:28:16;1.47;;;1.00;;
22826;SDS011;11580;52.562;13.418;2023-01-13T08:30:44;0.97;;;0.90;;
22826;SDS011;11580;52.562;13.418;2023-01-13T08:33:11;0.70;;;0.70;;
22826;SDS011;11580;52.562;13.418;2023-01-13T08:35:38;0.70;;;0.70;;
22826;SDS011;11580;52.562;13.418;2023-01-13T08:38:08;1.97;;;0.80;;
22826;SDS011;11580;52.562;13.418;2023-01-13T08:40:35;2.90;;;0.80;;
22826;SDS011;11580;52.562;13.418;2023-01-13T08:43:05;0.93;;;0.70;;
22826;SDS011;11580;52.562;13.418;2023-01-13T08:45:32;0.87;;;0.70;;
22826;SDS011;11580;52.562;13.418;2023-01-13T08:48:00;0.80;;;0.63;;
22826;SDS011;11580;52.562;13.418;2023-01-13T08:50:27;0.90;;;0.90;;
22826;SDS011;11580;52.562;13.418;2023-01-13T08:52:55;0.63;;;0.63;;
22826;SDS011;11580;52.562;13.418;2023-01-13T08:55:22;2.17;;;1.03;;
22826;SDS011;11580;52.562;13.418;2023-01-13T08:57:49;1.20;;;1.10;;
22826;SDS011;11580;52.562;13.418;2023-01-13T09:00:18;1.37;;;1.27;;
22826;SDS011;11580;52.562;13.418;2023-01-13T09:02:46;2.37;;;1.20;;
22826;SDS011;11580;52.562;13.418;2023-01-13T09:05:13;1.13;;;0.87;;
22826;SDS011;11580;52.562;13.418;2023-01-13T09:07:40;1.30;;;1.10;;
22826;SDS011;11580;52.562;13.418;2023-01-13T09:10:08;0.90;;;0.90;;
22826;SDS011;11580;52.562;13.418;2023-01-13T09:12:36;1.57;;;1.07;;
22826;SDS011;11580;52.562;13.418;2023-01-13T09:15:27;0.90;;;0.90;;
22826;SDS011;11580;52.562;13.418;2023-01-13T09:17:54;0.73;;;0.70;;
22826;SDS011;11580;52.562;13.418;2023-01-13T09:20:21;1.33;;;0.90;;
22826;SDS011;11580;52.562;13.418;2023-01-13T09:22:49;1.73;;;0.90;;
22826;SDS011;11580;52.562;13.418;2023-01-13T09:25:16;1.10;;;0.70;;
22826;SDS011;11580;52.562;13.418;2023-01-13T09:27:43;0.80;;;0.80;;
22826;SDS011;11580;52.562;13.418;2023-01-13T09:30:10;1.90;;;1.10;;
22826;SDS011;11580;52.562;13.418;2023-01-13T09:32:40;1.33;;;0.93;;
22826;SDS011;11580;52.562;13.418;2023-01-13T09:35:07;2.80;;;1.30;;
22826;SDS011;11580;52.562;13.418;2023-01-13T09:37:34;2.20;;;1.30;;
22826;SDS011;11580;52.562;13.418;2023-01-13T09:40:04;1.30;;;1.20;;
22826;SDS011;11580;52.562;13.418;2023-01-13T09:42:38;1.10;;;1.00;;
22826;SDS011;11580;52.562;13.418;2023-01-13T09:45:31;2.20;;;1.47;;
22826;SDS011;11580;52.562;13.418;2023-01-13T09:48:07;1.20;;;1.10;;
22826;SDS011;11580;52.562;13.418;2023-01-13T09:50:47;1.10;;;0.90;;
22826;SDS011;11580;52.562;13.418;2023-01-13T09:53:26;1.03;;;0.93;;
22826;SDS011;11580;52.562;13.418;2023-01-13T09:55:57;1.13;;;1.03;;
22826;SDS011;11580;52.562;13.418;2023-01-13T09:58:25;1.30;;;1.17;;
22826;SDS011;11580;52.562;13.418;2023-01-13T10:00:57;1.00;;;0.90;;
22826;SDS011;11580;52.562;13.418;2023-01-13T10:03:41;2.50;;;1.17;;
22826;SDS011;11580;52.562;13.418;2023-01-13T10:06:10;1.37;;;0.90;;
22826;SDS011;11580;52.562;13.418;2023-01-13T10:08:43;1.43;;;1.30;;
22826;SDS011;11580;52.562;13.418;2023-01-13T10:11:13;1.80;;;0.77;;
22826;SDS011;11580;52.562;13.418;2023-01-13T10:14:01;1.07;;;0.80;;
22826;SDS011;11580;52.562;13.418;2023-01-13T10:16:40;2.00;;;0.83;;
22826;SDS011;11580;52.562;13.418;2023-01-13T10:19:20;1.20;;;1.10;;
22826;SDS011;11580;52.562;13.418;2023-01-13T10:22:00;1.20;;;1.10;;
22826;SDS011;11580;52.562;13.418;2023-01-13T10:25:16;2.30;;;1.00;;
22826;SDS011;11580;52.562;13.418;2023-01-13T10:27:53;1.07;;;0.97;;
22826;SDS011;11580;52.562;13.418;2023-01-13T10:30:32;1.33;;;0.83;;
22826;SDS011;11580;52.562;13.418;2023-01-13T10:33:08;1.33;;;0.80;;
22826;SDS011;11580;52.562;13.418;2023-01-13T10:35:53;0.90;;;0.90;;
22826;SDS011;11580;52.562;13.418;2023-01-13T10:38:25;1.63;;;0.90;;
22826;SDS011;11580;52.562;13.418;2023-01-13T10:40:57;1.77;;;1.00;;
22826;SDS011;11580;52.562;13.418;2023-01-13T10:43:27;1.77;;;1.00;;
22826;SDS011;11580;52.562;13.418;2023-01-13T10:45:57;1.80;;;1.00;;
22826;SDS011;11580;52.562;13.418;2023-01-13T10:48:39;1.87;;;0.90;;
22826;SDS011;11580;52.562;13.418;2023-01-13T10:51:10;0.83;;;0.80;;
22826;SDS011;11580;52.562;13.418;2023-01-13T10:53:49;0.80;;;0.70;;
22826;SDS011;11580;52.562;13.418;2023-01-13T10:56:20;0.77;;;0.77;;
22826;SDS011;11580;52.562;13.418;2023-01-13T10:58:49;0.83;;;0.83;;
22826;SDS011;11580;52.562;13.418;2023-01-13T11:01:18;0.90;;;0.80;;
22826;SDS011;11580;52.562;13.418;2023-01-13T11:03:51;1.10;;;0.73;;
22826;SDS011;11580;52.562;13.418;2023-01-13T11:06:22;2.00;;;0.97;;
22826;SDS011;11580;52.562;13.418;2023-01-13T11:08:53;0.93;;;0.90;;
22826;SDS011;11580;52.562;13.418;2023-01-13T11:11:24;2.20;;;0.80;;
22826;SDS011;11580;52.562;13.418;2023-01-13T11:14:06;1.07;;;0.83;;
22826;SDS011;11580;52.562;13.418;2023-01-13T11:17:12;1.10;;;0.80;;
22826;SDS011;11580;52.562;13.418;2023-01-13T11:19:59;1.23;;;0.70;;
22826;SDS011;11580;52.562;13.418;2023-01-13T11:22:44;1.40;;;0.80;;
22826;SDS011;11580;52.562;13.418;2023-01-13T11:25:16;1.33;;;0.80;;
22826;SDS011;11580;52.562;13.418;2023-01-13T11:27:50;4.17;;;1.03;;
22826;SDS011;11580;52.562;13.418;2023-01-13T11:30:27;1.03;;;0.90;;
22826;SDS011;11580;52.562;13.418;2023-01-13T11:33:14;1.07;;;0.87;;
22826;SDS011;11580;52.562;13.418;2023-01-13T11:36:00;1.10;;;1.00;;
22826;SDS011;11580;52.562;13.418;2023-01-13T11:38:39;0.77;;;0.70;;
22826;SDS011;11580;52.562;13.418;2023-01-13T11:41:16;1.90;;;1.10;;
22826;SDS011;11580;52.562;13.418;2023-01-13T11:43:58;1.20;;;0.80;;
22826;SDS011;11580;52.562;13.418;2023-01-13T11:46:38;1.90;;;0.73;;
22826;SDS011;11580;52.562;13.418;2023-01-13T11:49:08;1.10;;;1.00;;
22826;SDS011;11580;52.562;13.418;2023-01-13T11:51:48;1.37;;;1.00;;
22826;SDS011;11580;52.562;13.418;2023-01-13T11:54:34;0.97;;;0.87;;
22826;SDS011;11580;52.562;13.418;2023-01-13T11:57:30;2.40;;;0.80;;
22826;SDS011;11580;52.562;13.418;2023-01-13T12:00:34;2.00;;;1.00;;
22826;SDS011;11580;52.562;13.418;2023-01-13T12:03:17;1.17;;;0.77;;
22826;SDS011;11580;52.562;13.418;2023-01-13T12:05:55;2.27;;;0.93;;
22826;SDS011;11580;52.562;13.418;2023-01-13T12:08:41;2.20;;;1.30;;
22826;SDS011;11580;52.562;13.418;2023-01-13T12:11:32;1.40;;;0.93;;
22826;SDS011;11580;52.562;13.418;2023-01-13T12:14:27;3.30;;;1.00;;
22826;SDS011;11580;52.562;13.418;2023-01-13T12:17:13;3.57;;;1.47;;
22826;SDS011;11580;52.562;13.418;2023-01-13T12:19:51;2.20;;;0.87;;
22826;SDS011;11580;52.562;13.418;2023-01-13T12:22:19;1.77;;;0.80;;
22826;SDS011;11580;52.562;13.418;2023-01-13T12:24:54;2.73;;;1.13;;
22826;SDS011;11580;52.562;13.418;2023-01-13T12:27:36;1.17;;;0.93;;
22826;SDS011;11580;52.562;13.418;2023-01-13T12:30:15;1.50;;;1.30;;
22826;SDS011;11580;52.562;13.418;2023-01-13T12:32:51;3.83;;;1.17;;
22826;SDS011;11580;52.562;13.418;2023-01-13T12:35:30;5.33;;;1.20;;
22826;SDS011;11580;52.562;13.418;2023-01-13T12:38:06;1.17;;;1.03;;
22826;SDS011;11580;52.562;13.418;2023-01-13T12:40:45;1.43;;;1.07;;
22826;SDS011;11580;52.562;13.418;2023-01-13T12:43:21;2.70;;;1.23;;
22826;SDS011;11580;52.562;13.418;2023-01-13T12:49:21;3.00;;;1.20;;
22826;SDS011;11580;52.562;13.418;2023-01-13T12:55:02;1.90;;;1.30;;
22826;SDS011;11580;52.562;13.418;2023-01-13T12:58:13;2.13;;;1.10;;
22826;SDS011;11580;52.562;13.418;2023-01-13T13:00:53;3.33;;;1.20;;
22826;SDS011;11580;52.562;13.418;2023-01-13T13:03:29;2.97;;;1.77;;
22826;SDS011;11580;52.562;13.418;2023-01-13T13:06:00;1.87;;;1.17;;
22826;SDS011;11580;52.562;13.418;2023-01-13T13:08:40;1.33;;;1.00;;
22826;SDS011;11580;52.562;13.418;2023-01-13T13:11:36;1.80;;;1.00;;
22826;SDS011;11580;52.562;13.418;2023-01-13T13:17:39;2.43;;;1.70;;
22826;SDS011;11580;52.562;13.418;2023-01-13T13:23:39;1.50;;;1.40;;
22826;SDS011;11580;52.562;13.418;2023-01-13T13:26:35;1.30;;;1.20;;
22826;SDS011;11580;52.562;13.418;2023-01-13T13:32:26;1.90;;;1.10;;
22826;SDS011;11580;52.562;13.418;2023-01-13T13:35:35;2.30;;;1.07;;
22826;SDS011;11580;52.562;13.418;2023-01-13T13:38:22;1.40;;;1.10;;
22826;SDS011;11580;52.562;13.418;2023-01-13T13:41:27;2.13;;;1.10;;
22826;SDS011;11580;52.562;13.418;2023-01-13T13:44:13;2.60;;;1.33;;
22826;SDS011;11580;52.562;13.418;2023-01-13T13:47:03;2.30;;;1.20;;
22826;SDS011;11580;52.562;13.418;2023-01-13T13:49:37;2.33;;;1.30;;
22826;SDS011;11580;52.562;13.418;2023-01-13T13:52:11;1.70;;;1.47;;
22826;SDS011;11580;52.562;13.418;2023-01-13T13:54:46;3.60;;;1.50;;
22826;SDS011;11580;52.562;13.418;2023-01-13T13:57:18;2.53;;;1.10;;
22826;SDS011;11580;52.562;13.418;2023-01-13T13:59:52;2.47;;;1.23;;
22826;SDS011;11580;52.562;13.418;2023-01-13T14:02:25;2.50;;;1.20;;
22826;SDS011;11580;52.562;13.418;2023-01-13T14:05:10;2.60;;;1.10;;
22826;SDS011;11580;52.562;13.418;2023-01-13T14:07:45;1.43;;;1.10;;
22826;SDS011;11580;52.562;13.418;2023-01-13T14:10:17;1.87;;;1.17;;
22826;SDS011;11580;52.562;13.418;2023-01-13T14:12:49;2.27;;;1.23;;
22826;SDS011;11580;52.562;13.418;2023-01-13T14:15:24;1.23;;;1.00;;
22826;SDS011;11580;52.562;13.418;2023-01-13T14:17:58;1.37;;;1.00;;
22826;SDS011;11580;52.562;13.418;2023-01-13T14:20:30;2.17;;;1.03;;
22826;SDS011;11580;52.562;13.418;2023-01-13T14:22:59;1.50;;;1.30;;
22826;SDS011;11580;52.562;13.418;2023-01-13T14:25:31;1.50;;;1.00;;
22826;SDS011;11580;52.562;13.418;2023-01-13T14:28:07;2.87;;;1.07;;
22826;SDS011;11580;52.562;13.418;2023-01-13T14:30:46;2.03;;;1.10;;
22826;SDS011;11580;52.562;13.418;2023-01-13T14:33:16;1.87;;;1.10;;
22826;SDS011;11580;52.562;13.418;2023-01-13T14:36:12;1.87;;;1.77;;
22826;SDS011;11580;52.562;13.418;2023-01-13T14:38:44;2.67;;;1.20;;
22826;SDS011;11580;52.562;13.418;2023-01-13T14:41:17;1.50;;;1.20;;
22826;SDS011;11580;52.562;13.418;2023-01-13T14:43:48;3.40;;;1.23;;
22826;SDS011;11580;52.562;13.418;2023-01-13T14:46:18;2.13;;;1.07;;
22826;SDS011;11580;52.562;13.418;2023-01-13T14:48:49;2.87;;;1.20;;
22826;SDS011;11580;52.562;13.418;2023-01-13T14:51:27;2.20;;;1.10;;
22826;SDS011;11580;52.562;13.418;2023-01-13T14:53:56;1.13;;;1.03;;
22826;SDS011;11580;52.562;13.418;2023-01-13T14:56:37;3.10;;;1.20;;
22826;SDS011;11580;52.562;13.418;2023-01-13T15:02:35;1.97;;;1.07;;
22826;SDS011;11580;52.562;13.418;2023-01-13T15:11:02;2.90;;;1.80;;
22826;SDS011;11580;52.562;13.418;2023-01-13T15:13:37;2.73;;;1.30;;
22826;SDS011;11580;52.562;13.418;2023-01-13T15:16:14;4.00;;;1.57;;
22826;SDS011;11580;52.562;13.418;2023-01-13T15:18:44;2.07;;;1.30;;
22826;SDS011;11580;52.562;13.418;2023-01-13T15:21:12;2.13;;;1.30;;
22826;SDS011;11580;52.562;13.418;2023-01-13T15:23:42;2.33;;;1.20;;
22826;SDS011;11580;52.562;13.418;2023-01-13T15:26:16;1.23;;;1.13;;
22826;SDS011;11580;52.562;13.418;2023-01-13T15:28:47;1.83;;;1.30;;
22826;SDS011;11580;52.562;13.418;2023-01-13T15:31:16;1.83;;;1.37;;
22826;SDS011;11580;52.562;13.418;2023-01-13T15:33:44;2.57;;;1.40;;
22826;SDS011;11580;52.562;13.418;2023-01-13T15:36:19;2.40;;;1.43;;
22826;SDS011;11580;52.562;13.418;2023-01-13T15:38:52;3.20;;;1.60;;
22826;SDS011;11580;52.562;13.418;2023-01-13T15:41:20;1.90;;;1.40;;
22826;SDS011;11580;52.562;13.418;2023-01-13T15:44:01;3.73;;;1.83;;
22826;SDS011;11580;52.562;13.418;2023-01-13T15:46:47;3.10;;;1.60;;